createdAt,value
2019-03-01T00:00:01.406Z,33.80
2019-03-01T00:02:30.124Z,30.67
2019-03-01T00:05:01.629Z,28.10
2019-03-01T00:08:06.599Z,29.93
2019-03-01T00:11:02.000Z,30.50
2019-03-01T00:14:02.170Z,32.50
2019-03-01T00:16:42.429Z,40.03
2019-03-01T00:19:34.606Z,41.87
2019-03-01T00:22:32.708Z,30.20
2019-03-01T00:25:15.962Z,32.93
2019-03-01T00:27:56.175Z,31.07
2019-03-01T00:30:30.524Z,33.40
2019-03-01T00:33:22.667Z,29.73
2019-03-01T00:36:06.163Z,41.87
2019-03-01T00:39:06.020Z,34.70
2019-03-01T00:41:54.188Z,33.30
2019-03-01T00:44:47.683Z,28.30
2019-03-01T00:47:15.815Z,33.23
2019-03-01T00:52:33.039Z,36.23
2019-03-01T00:55:01.472Z,35.97
2019-03-01T00:57:29.927Z,32.33
2019-03-01T00:59:58.436Z,30.77
2019-03-01T01:02:26.897Z,37.77
2019-03-01T01:04:55.435Z,40.77
2019-03-01T01:07:23.864Z,32.70
2019-03-01T01:10:11.731Z,34.33
2019-03-01T01:12:40.179Z,32.83
2019-03-01T01:15:08.872Z,42.57
2019-03-01T01:17:37.755Z,30.13
2019-03-01T01:20:09.396Z,32.87
2019-03-01T01:22:37.891Z,33.00
2019-03-01T01:25:27.226Z,32.27
2019-03-01T01:28:14.991Z,38.93
2019-03-01T01:30:43.440Z,33.63
2019-03-01T01:33:11.909Z,39.27
2019-03-01T01:35:40.336Z,29.27
2019-03-01T01:38:08.796Z,40.27
2019-03-01T01:40:37.224Z,41.87
2019-03-01T01:43:25.019Z,32.73
2019-03-01T01:45:53.460Z,27.13
2019-03-01T01:48:21.978Z,37.20
2019-03-01T01:50:50.397Z,46.37
2019-03-01T01:53:18.858Z,41.23
2019-03-01T01:56:06.640Z,31.33
2019-03-01T01:58:35.063Z,41.70
2019-03-01T02:01:22.859Z,31.00
2019-03-01T02:03:51.289Z,40.00
2019-03-01T02:06:39.079Z,31.57
2019-03-01T02:09:10.981Z,37.90
2019-03-01T02:14:28.228Z,40.17
2019-03-01T02:16:56.709Z,38.90
2019-03-01T02:19:25.187Z,46.00
2019-03-01T02:21:53.671Z,31.80
2019-03-01T02:24:22.123Z,44.47
2019-03-01T02:26:50.556Z,44.70
2019-03-01T02:29:38.340Z,40.27
2019-03-01T02:32:06.768Z,38.20
2019-03-01T02:34:35.222Z,41.67
2019-03-01T02:37:23.018Z,45.23
2019-03-01T02:43:06.072Z,44.47
2019-03-01T02:45:34.516Z,48.07
2019-03-01T02:48:02.967Z,41.10
2019-03-01T02:50:31.429Z,39.50
2019-03-01T02:52:59.902Z,34.80
2019-03-01T02:55:28.408Z,41.70
2019-03-01T02:58:16.203Z,43.13
2019-03-01T03:00:44.648Z,48.13
2019-03-01T03:03:32.530Z,44.37
2019-03-01T03:06:08.398Z,62.70
2019-03-01T03:08:36.878Z,57.53
2019-03-01T03:11:24.696Z,49.37
2019-03-01T03:13:53.157Z,43.00
2019-03-01T03:16:21.678Z,42.70
2019-03-01T03:19:09.513Z,53.03
2019-03-01T03:21:37.977Z,47.40
2019-03-01T03:24:18.965Z,58.13
2019-03-01T03:26:59.948Z,57.27
2019-03-01T03:29:28.378Z,54.43
2019-03-01T03:32:16.193Z,56.70
2019-03-01T03:35:04.744Z,90.43
2019-03-01T03:37:52.591Z,85.93
2019-03-01T03:40:33.105Z,100.67
2019-03-01T03:43:01.539Z,104.73
2019-03-01T03:45:30.007Z,81.70
2019-03-01T03:47:58.459Z,100.97
2019-03-01T03:50:26.879Z,100.43
2019-03-01T03:52:55.341Z,103.53
2019-03-01T03:55:23.909Z,119.53
2019-03-01T03:57:52.449Z,105.90
2019-03-01T04:00:40.214Z,104.37
2019-03-01T04:03:08.669Z,99.67
2019-03-01T04:05:56.453Z,100.87
2019-03-01T04:08:37.162Z,92.07
2019-03-01T04:11:13.291Z,117.53
2019-03-01T04:13:41.761Z,105.40
2019-03-01T04:16:10.177Z,96.37
2019-03-01T04:18:44.688Z,115.17
2019-03-01T04:21:13.489Z,104.77
2019-03-01T04:23:42.448Z,93.73
2019-03-01T04:26:12.956Z,111.53
2019-03-01T04:28:41.856Z,112.23
2019-03-01T04:31:29.954Z,108.50
2019-03-01T04:33:58.884Z,115.33
2019-03-01T04:36:27.622Z,115.10
2019-03-01T04:38:58.061Z,127.73
2019-03-01T04:41:27.976Z,120.80
2019-03-01T04:43:58.096Z,102.23
2019-03-01T04:46:26.953Z,119.47
2019-03-01T04:48:55.429Z,145.40
2019-03-01T04:51:23.883Z,132.50
2019-03-01T04:53:52.343Z,131.90
2019-03-01T04:56:21.848Z,142.50
2019-03-01T04:58:50.466Z,114.57
2019-03-01T05:01:18.995Z,89.10
2019-03-01T05:04:06.856Z,131.53
2019-03-01T05:06:35.294Z,117.27
2019-03-01T05:09:05.198Z,124.30
2019-03-01T05:11:33.624Z,64.90
2019-03-01T05:14:02.088Z,138.77
2019-03-01T05:16:49.879Z,136.77
2019-03-01T05:19:18.332Z,72.60
2019-03-01T05:22:06.134Z,59.37
2019-03-01T05:24:47.308Z,68.30
2019-03-01T05:27:27.965Z,119.13
2019-03-01T05:29:56.388Z,99.60
2019-03-01T05:32:24.815Z,126.43
2019-03-01T05:34:53.263Z,162.60
2019-03-01T05:37:33.816Z,110.63
2019-03-01T05:40:02.332Z,159.47
2019-03-01T05:42:30.759Z,169.20
2019-03-01T05:45:00.566Z,171.80
2019-03-01T05:47:29.351Z,142.83
2019-03-01T05:49:57.801Z,189.17
2019-03-01T05:52:26.291Z,192.47
2019-03-01T05:54:54.739Z,160.17
2019-03-01T05:57:23.215Z,167.43
2019-03-01T06:00:10.974Z,177.47
2019-03-01T06:02:51.468Z,138.77
2019-03-01T06:05:32.104Z,153.27
2019-03-01T06:08:12.551Z,151.80
2019-03-01T06:10:46.760Z,150.23
2019-03-01T06:13:52.470Z,164.33
2019-03-01T06:16:32.842Z,152.37
2019-03-01T06:19:13.676Z,167.93
2019-03-01T06:22:02.893Z,158.70
2019-03-01T06:24:52.229Z,134.53
2019-03-01T06:27:38.582Z,128.77
2019-03-01T06:30:51.604Z,165.70
2019-03-01T06:33:27.028Z,166.83
2019-03-01T06:36:07.546Z,154.10
2019-03-01T06:42:08.227Z,170.47
2019-03-01T06:45:15.802Z,141.23
2019-03-01T06:47:47.361Z,146.83
2019-03-01T06:50:36.770Z,142.03
2019-03-01T06:53:05.218Z,147.23
2019-03-01T06:55:36.751Z,155.93
2019-03-01T06:58:07.814Z,136.60
2019-03-01T07:00:38.026Z,119.97
2019-03-01T07:03:06.480Z,113.23
2019-03-01T07:05:34.907Z,165.00
2019-03-01T07:08:03.395Z,154.17
2019-03-01T07:10:31.842Z,145.73
2019-03-01T07:13:00.375Z,156.93
2019-03-01T07:18:17.607Z,181.93
2019-03-01T07:21:05.366Z,185.03
2019-03-01T07:23:53.151Z,150.50
2019-03-01T07:26:21.585Z,174.63
2019-03-01T07:28:50.036Z,171.13
2019-03-01T07:31:18.461Z,168.27
2019-03-01T07:33:46.904Z,176.77
2019-03-01T07:36:15.334Z,180.40
2019-03-01T07:38:43.809Z,186.67
2019-03-01T07:41:12.279Z,168.53
2019-03-01T07:43:40.705Z,194.40
2019-03-01T07:46:09.239Z,179.63
2019-03-01T07:48:37.662Z,95.83
2019-03-01T07:51:06.141Z,175.10
2019-03-01T07:53:36.137Z,158.50
2019-03-01T07:56:24.088Z,194.37
2019-03-01T07:58:52.538Z,175.33
2019-03-01T08:01:20.980Z,214.20
2019-03-01T08:04:08.753Z,222.47
2019-03-01T08:06:37.230Z,169.83
2019-03-01T08:09:08.798Z,211.57
2019-03-01T08:11:37.253Z,203.63
2019-03-01T08:14:05.696Z,208.90
2019-03-01T08:16:34.122Z,219.17
2019-03-01T08:19:23.460Z,239.33
2019-03-01T08:21:52.537Z,232.47
2019-03-01T08:24:22.134Z,242.13
2019-03-01T08:26:50.874Z,255.47
2019-03-01T08:29:19.378Z,226.30
2019-03-01T08:31:47.828Z,261.07
2019-03-01T08:34:35.593Z,301.80
2019-03-01T08:37:04.039Z,326.73
2019-03-01T08:39:32.487Z,257.23
2019-03-01T08:42:20.277Z,362.43
2019-03-01T08:44:48.731Z,280.13
2019-03-01T08:47:23.217Z,223.67
2019-03-01T08:50:08.196Z,272.93
2019-03-01T08:52:55.987Z,229.73
2019-03-01T08:55:26.929Z,245.00
2019-03-01T08:57:59.764Z,237.73
2019-03-01T09:00:31.544Z,291.10
2019-03-01T09:03:03.311Z,236.07
2019-03-01T09:05:31.746Z,284.67
2019-03-01T09:08:00.191Z,200.80
2019-03-01T09:10:32.426Z,182.40
2019-03-01T09:12:58.815Z,176.27
2019-03-01T09:15:27.275Z,205.80
2019-03-01T09:17:55.703Z,111.80
2019-03-01T09:20:24.134Z,180.67
2019-03-01T09:23:24.030Z,158.40
2019-03-01T09:25:44.738Z,63.57
2019-03-01T09:28:12.227Z,56.40
2019-03-01T09:30:43.489Z,57.63
2019-03-01T09:33:10.823Z,55.50
2019-03-01T09:35:44.003Z,40.43
2019-03-01T09:38:12.604Z,49.53
2019-03-01T09:40:41.100Z,35.27
2019-03-01T09:43:28.879Z,37.97
2019-03-01T09:45:57.332Z,41.43
2019-03-01T09:48:25.772Z,36.67
2019-03-01T09:50:54.197Z,44.23
2019-03-01T09:53:22.649Z,32.83
2019-03-01T09:55:51.080Z,41.37
2019-03-01T09:58:32.297Z,25.53
2019-03-01T10:01:19.063Z,46.57
2019-03-01T10:03:47.788Z,44.60
2019-03-01T10:06:16.208Z,50.07
2019-03-01T10:09:05.540Z,42.47
2019-03-01T10:11:33.968Z,40.37
2019-03-01T10:14:02.483Z,37.10
2019-03-01T10:16:30.932Z,45.10
2019-03-01T10:18:59.365Z,41.67
2019-03-01T10:21:28.141Z,32.27
2019-03-01T10:23:56.555Z,30.50
2019-03-01T10:26:24.984Z,40.83
2019-03-01T10:28:53.444Z,44.53
2019-03-01T10:31:21.870Z,53.47
2019-03-01T10:34:09.660Z,34.03
2019-03-01T10:36:38.513Z,45.77
2019-03-01T10:39:10.079Z,25.73
2019-03-01T10:41:38.515Z,24.90
2019-03-01T10:44:06.951Z,36.97
2019-03-01T10:46:35.408Z,22.47
2019-03-01T10:49:03.890Z,12.33
2019-03-01T10:51:32.338Z,19.67
2019-03-01T10:54:00.811Z,35.60
2019-03-01T10:56:29.266Z,13.93
2019-03-01T10:58:58.493Z,22.83
2019-03-01T11:01:27.121Z,21.23
2019-03-01T11:03:57.415Z,17.80
2019-03-01T11:06:25.843Z,16.47
2019-03-01T11:08:54.267Z,15.60
2019-03-01T11:11:42.188Z,16.93
2019-03-01T11:14:10.655Z,7.23
2019-03-01T11:16:58.416Z,9.03
2019-03-01T11:19:26.860Z,8.67
2019-03-01T11:21:55.304Z,15.17
2019-03-01T11:24:23.837Z,17.47
2019-03-01T11:26:52.274Z,19.93
2019-03-01T11:29:20.696Z,21.80
2019-03-01T11:31:49.147Z,17.47
2019-03-01T11:34:17.572Z,15.40
2019-03-01T11:36:46.028Z,7.97
2019-03-01T11:39:15.816Z,16.30
2019-03-01T11:41:44.272Z,15.43
2019-03-01T11:44:12.729Z,19.03
2019-03-01T11:46:41.216Z,15.03
2019-03-01T11:49:29.010Z,23.50
2019-03-01T11:51:57.454Z,18.83
2019-03-01T11:54:25.881Z,17.40
2019-03-01T11:56:54.436Z,24.00
2019-03-01T11:59:22.959Z,22.97
2019-03-01T12:01:51.379Z,16.07
2019-03-01T12:04:19.833Z,20.57
2019-03-01T12:06:48.259Z,12.47
2019-03-01T12:09:16.707Z,20.17
2019-03-01T12:11:45.174Z,19.37
2019-03-01T12:14:13.644Z,30.30
2019-03-01T12:17:01.416Z,25.10
2019-03-01T12:19:29.843Z,25.67
2019-03-01T12:21:58.313Z,27.93
2019-03-01T12:24:26.880Z,16.47
2019-03-01T12:26:55.310Z,32.57
2019-03-01T12:29:23.754Z,18.97
2019-03-01T12:31:52.255Z,26.57
2019-03-01T12:34:20.703Z,16.57
2019-03-01T12:36:49.158Z,23.33
2019-03-01T12:39:17.669Z,15.13
2019-03-01T12:42:05.421Z,19.30
2019-03-01T12:44:34.045Z,26.57
2019-03-01T12:47:02.465Z,18.27
2019-03-01T12:49:30.899Z,15.07
2019-03-01T12:51:59.330Z,19.30
2019-03-01T12:57:22.625Z,28.20
2019-03-01T12:59:51.054Z,26.27
2019-03-01T13:02:19.513Z,27.63
2019-03-01T13:04:49.890Z,18.40
2019-03-01T13:07:37.517Z,14.23
2019-03-01T13:10:18.109Z,20.27
2019-03-01T13:13:01.578Z,23.60
2019-03-01T13:15:28.684Z,19.93
2019-03-01T13:17:57.116Z,16.03
2019-03-01T13:20:25.571Z,13.87
2019-03-01T13:22:53.997Z,15.80
2019-03-01T13:25:22.445Z,12.37
2019-03-01T13:27:52.579Z,10.53
2019-03-01T13:30:23.828Z,6.37
2019-03-01T13:32:52.292Z,14.70
2019-03-01T13:35:22.247Z,9.87
2019-03-01T13:37:52.003Z,11.60
2019-03-01T13:40:24.553Z,11.20
2019-03-01T13:42:52.163Z,10.73
2019-03-01T13:45:22.964Z,10.10
2019-03-01T13:47:51.453Z,5.10
2019-03-01T13:50:22.102Z,13.80
2019-03-01T13:52:50.546Z,7.30
2019-03-01T13:55:22.485Z,15.17
2019-03-01T14:00:23.182Z,7.30
2019-03-01T14:02:51.760Z,7.23
2019-03-01T14:05:20.370Z,13.53
2019-03-01T14:07:55.290Z,11.43
2019-03-01T14:10:22.028Z,10.00
2019-03-01T14:12:50.469Z,14.03
2019-03-01T14:15:19.064Z,6.37
2019-03-01T14:17:47.568Z,7.20
2019-03-01T14:20:20.320Z,9.40
2019-03-01T14:22:49.233Z,12.73
2019-03-01T14:25:38.592Z,7.10
2019-03-01T14:28:07.495Z,11.07
2019-03-01T14:30:35.920Z,9.40
2019-03-01T14:33:04.436Z,9.87
2019-03-01T14:35:32.918Z,10.40
2019-03-01T14:38:01.405Z,14.30
2019-03-01T14:40:29.871Z,7.83
2019-03-01T14:42:58.322Z,13.77
2019-03-01T14:48:22.129Z,11.27
2019-03-01T14:50:50.576Z,9.97
2019-03-01T14:53:38.344Z,6.97
2019-03-01T14:56:13.176Z,10.00
2019-03-01T14:58:47.470Z,16.03
2019-03-01T15:01:27.719Z,9.50
2019-03-01T15:03:56.279Z,11.30
2019-03-01T15:06:24.758Z,7.70
2019-03-01T15:08:53.246Z,15.57
2019-03-01T15:11:21.951Z,7.33
2019-03-01T15:13:50.391Z,7.57
2019-03-01T15:16:18.890Z,11.73
2019-03-01T15:18:47.469Z,8.70
2019-03-01T15:21:16.057Z,7.80
2019-03-01T15:23:44.511Z,8.93
2019-03-01T15:26:13.162Z,6.50
2019-03-01T15:29:00.948Z,4.77
2019-03-01T15:31:29.378Z,10.33
2019-03-01T15:33:57.827Z,9.43
2019-03-01T15:36:45.605Z,9.83
2019-03-01T15:39:16.675Z,12.27
2019-03-01T15:41:44.194Z,17.90
2019-03-01T15:44:31.981Z,7.23
2019-03-01T15:47:00.399Z,8.90
2019-03-01T15:49:28.845Z,6.50
2019-03-01T15:51:57.292Z,10.90
2019-03-01T15:54:25.735Z,8.83
2019-03-01T15:56:54.167Z,7.40
2019-03-01T15:59:22.691Z,6.60
2019-03-01T16:01:51.137Z,6.80
2019-03-01T16:04:19.644Z,7.10
2019-03-01T16:06:48.095Z,10.70
2019-03-01T16:09:16.655Z,13.83
2019-03-01T16:11:45.111Z,9.20
2019-03-01T16:14:13.528Z,7.83
2019-03-01T16:16:41.988Z,11.30
2019-03-01T16:19:11.149Z,17.20
2019-03-01T16:21:43.096Z,13.53
2019-03-01T16:24:10.731Z,20.00
2019-03-01T16:26:39.159Z,9.33
2019-03-01T16:29:26.958Z,10.13
2019-03-01T16:31:55.414Z,9.90
2019-03-01T16:34:23.849Z,11.97
2019-03-01T16:36:52.704Z,9.37
2019-03-01T16:39:33.351Z,7.70
2019-03-01T16:42:01.842Z,7.60
2019-03-01T16:44:30.340Z,15.13
2019-03-01T16:46:58.775Z,8.13
2019-03-01T16:49:28.252Z,10.73
2019-03-01T16:51:56.983Z,8.40
2019-03-01T16:54:25.531Z,8.10
2019-03-01T16:56:54.665Z,13.43
2019-03-01T16:59:23.087Z,12.23
2019-03-01T17:04:47.104Z,18.27
2019-03-01T17:07:15.578Z,10.53
2019-03-01T17:09:43.987Z,7.30
2019-03-01T17:12:13.922Z,14.10
2019-03-01T17:14:42.627Z,10.63
2019-03-01T17:17:11.116Z,7.43
2019-03-01T17:19:39.555Z,7.97
2019-03-01T17:22:07.979Z,11.03
2019-03-01T17:24:36.516Z,7.60
2019-03-01T17:27:05.558Z,13.93
2019-03-01T17:29:35.839Z,9.93
2019-03-01T17:32:05.301Z,8.60
2019-03-01T17:34:33.753Z,15.53
2019-03-01T17:37:02.193Z,10.50
2019-03-01T17:39:30.683Z,13.63
2019-03-01T17:41:59.128Z,33.53
2019-03-01T17:44:27.585Z,8.20
2019-03-01T17:47:16.158Z,7.80
2019-03-01T17:49:44.860Z,19.30
2019-03-01T17:52:13.307Z,10.17
2019-03-01T17:55:01.468Z,14.53
2019-03-01T17:57:43.697Z,13.37
2019-03-01T18:00:15.119Z,11.53
2019-03-01T18:02:43.534Z,22.47
2019-03-01T18:05:12.613Z,12.00
2019-03-01T18:07:41.111Z,14.57
2019-03-01T18:10:12.171Z,13.03
2019-03-01T18:12:40.643Z,10.60
2019-03-01T18:15:12.337Z,14.33
2019-03-01T18:17:44.106Z,13.33
2019-03-01T18:20:33.876Z,11.57
2019-03-01T18:23:03.855Z,16.33
2019-03-01T18:25:32.311Z,14.67
2019-03-01T18:28:00.725Z,14.27
2019-03-01T18:30:31.691Z,12.60
2019-03-01T18:33:00.136Z,15.27
2019-03-01T18:35:52.379Z,22.23
2019-03-01T18:38:19.302Z,13.70
2019-03-01T18:40:57.783Z,12.67
2019-03-01T18:43:26.247Z,10.57
2019-03-01T18:45:54.974Z,12.93
2019-03-01T18:48:23.471Z,9.33
2019-03-01T18:50:51.903Z,16.60
2019-03-01T18:53:20.350Z,11.90
2019-03-01T18:55:49.580Z,11.27
2019-03-01T18:58:18.969Z,8.00
2019-03-01T19:00:52.452Z,21.00
2019-03-01T19:03:20.867Z,12.50
2019-03-01T19:05:49.287Z,15.40
2019-03-01T19:08:17.812Z,11.87
2019-03-01T19:11:05.563Z,15.10
2019-03-01T19:13:34.014Z,14.23
2019-03-01T19:16:21.764Z,12.40
2019-03-01T19:18:51.233Z,12.17
2019-03-01T19:21:39.864Z,13.83
2019-03-01T19:24:20.203Z,11.73
2019-03-01T19:26:48.626Z,20.43
2019-03-01T19:29:38.098Z,17.93
2019-03-01T19:32:26.822Z,14.77
2019-03-01T19:35:08.223Z,13.20
2019-03-01T19:37:36.644Z,13.50
2019-03-01T19:40:10.870Z,12.60
2019-03-01T19:42:38.650Z,10.63
2019-03-01T19:45:10.040Z,9.93
2019-03-01T19:47:38.459Z,14.47
2019-03-01T19:50:15.151Z,11.07
2019-03-01T19:52:46.970Z,11.80
2019-03-01T19:55:15.394Z,17.00
2019-03-01T19:57:44.056Z,14.10
2019-03-01T20:03:10.064Z,14.03
2019-03-01T20:05:39.228Z,16.43
2019-03-01T20:08:07.745Z,20.23
2019-03-01T20:10:36.978Z,16.37
2019-03-01T20:16:01.352Z,15.30
2019-03-01T20:18:30.199Z,22.30
2019-03-01T20:20:58.650Z,17.27
2019-03-01T20:23:46.704Z,18.83
2019-03-01T20:26:15.119Z,17.37
2019-03-01T20:28:43.585Z,17.60
2019-03-01T20:31:12.065Z,23.63
2019-03-01T20:33:40.591Z,20.10
2019-03-01T20:36:09.011Z,24.67
2019-03-01T20:38:56.800Z,17.20
2019-03-01T20:41:25.213Z,21.57
2019-03-01T20:44:05.488Z,16.37
2019-03-01T20:46:33.936Z,16.90
2019-03-01T20:49:03.890Z,18.03
2019-03-01T20:51:33.258Z,16.80
2019-03-01T20:54:01.798Z,18.33
2019-03-01T20:56:31.959Z,22.20
2019-03-01T20:59:00.748Z,20.50
2019-03-01T21:01:29.563Z,17.70
2019-03-01T21:04:04.835Z,19.90
2019-03-01T21:09:28.550Z,17.13
2019-03-01T21:11:57.825Z,8.83
2019-03-01T21:14:27.862Z,16.93
2019-03-01T21:16:57.002Z,14.50
2019-03-01T21:19:25.795Z,18.20
2019-03-01T21:21:54.799Z,16.03
2019-03-01T21:24:26.628Z,18.97
2019-03-01T21:26:54.265Z,12.60
2019-03-01T21:29:23.046Z,17.27
2019-03-01T21:31:53.514Z,8.53
2019-03-01T21:34:22.321Z,8.97
2019-03-01T21:36:51.218Z,8.37
2019-03-01T21:39:20.598Z,17.60
2019-03-01T21:41:52.938Z,10.93
2019-03-01T21:44:21.437Z,10.17
2019-03-01T21:46:49.878Z,12.83
2019-03-01T21:49:18.291Z,16.50
2019-03-01T21:52:06.082Z,10.87
2019-03-01T21:54:53.846Z,13.37
2019-03-01T21:57:22.276Z,12.33
2019-03-01T21:59:52.539Z,10.80
2019-03-01T22:02:20.997Z,12.60
2019-03-01T22:04:49.412Z,12.07
2019-03-01T22:07:17.833Z,13.10
2019-03-01T22:10:07.379Z,10.13
2019-03-01T22:12:35.896Z,13.23
2019-03-01T22:15:21.641Z,11.33
2019-03-01T22:17:49.565Z,9.83
2019-03-01T22:20:37.489Z,10.00
2019-03-01T22:23:10.228Z,9.87
2019-03-01T22:25:37.903Z,8.60
2019-03-01T22:28:26.095Z,10.43
2019-03-01T22:30:56.560Z,9.53
2019-03-01T22:33:24.679Z,9.87
2019-03-01T22:38:47.896Z,12.27
2019-03-01T22:41:16.316Z,9.03
2019-03-01T22:44:04.164Z,9.00
2019-03-01T22:46:32.612Z,9.97
2019-03-01T22:49:01.059Z,12.23
2019-03-01T22:51:49.613Z,9.70
2019-03-01T22:54:19.094Z,9.77
2019-03-01T22:56:48.513Z,11.70
2019-03-01T22:59:37.182Z,7.60
2019-03-01T23:02:08.095Z,7.87
2019-03-01T23:04:36.833Z,11.73
2019-03-01T23:07:05.311Z,8.20
2019-03-01T23:09:33.758Z,8.10
2019-03-01T23:12:21.511Z,7.20
2019-03-01T23:15:02.922Z,7.93
2019-03-01T23:17:32.206Z,10.20
2019-03-01T23:20:00.625Z,6.40
2019-03-01T23:22:29.070Z,8.67
2019-03-01T23:24:57.516Z,8.57
2019-03-01T23:27:28.467Z,7.83
2019-03-01T23:29:56.115Z,9.83
2019-03-01T23:32:24.580Z,15.83
2019-03-01T23:34:53.091Z,7.63
2019-03-01T23:37:21.509Z,7.70
2019-03-01T23:39:49.951Z,9.33
2019-03-01T23:42:20.866Z,14.07
2019-03-01T23:44:48.555Z,9.87
2019-03-01T23:47:38.250Z,9.00
2019-03-01T23:50:25.884Z,14.20
2019-03-01T23:52:54.712Z,7.90
2019-03-01T23:55:24.471Z,7.90
2019-03-01T23:58:12.629Z,9.20
